createdAt,value
2023-03-06T00:01:02.096Z,2.82
2023-03-06T00:06:03.122Z,2.76
2023-03-06T00:11:05.241Z,2.84
2023-03-06T00:16:07.034Z,2.74
2023-03-06T00:21:08.759Z,2.81
2023-03-06T00:26:11.496Z,2.75
2023-03-06T00:31:14.216Z,2.71
2023-03-06T00:36:14.911Z,2.75
2023-03-06T00:41:16.915Z,2.69
2023-03-06T00:46:17.562Z,2.79
2023-03-06T00:51:19.739Z,2.73
2023-03-06T00:56:21.787Z,2.66
2023-03-06T01:01:23.264Z,2.75
2023-03-06T01:06:24.936Z,2.64
2023-03-06T01:11:27.149Z,2.57
2023-03-06T01:16:28.264Z,2.71
2023-03-06T01:21:28.963Z,2.69
2023-03-06T01:26:31.680Z,2.64
2023-03-06T01:31:32.407Z,2.60
2023-03-06T01:36:33.260Z,2.39
2023-03-06T01:41:37.912Z,2.34
2023-03-06T01:46:42.131Z,2.42
2023-03-06T01:51:48.563Z,2.46
2023-03-06T01:56:55.009Z,2.39
2023-03-06T02:01:57.120Z,2.31
2023-03-06T02:07:00.270Z,2.44
2023-03-06T02:12:02.893Z,2.40
2023-03-06T02:17:04.083Z,2.54
2023-03-06T02:22:06.305Z,2.43
2023-03-06T02:27:10.863Z,2.45
2023-03-06T02:32:11.759Z,2.49
2023-03-06T02:37:12.600Z,2.48
2023-03-06T02:42:20.177Z,2.53
2023-03-06T02:47:21.262Z,2.48
2023-03-06T02:52:25.385Z,2.52
2023-03-06T02:57:27.522Z,2.42
2023-03-06T03:02:29.694Z,2.36
2023-03-06T03:07:30.568Z,2.38
2023-03-06T03:12:33.155Z,2.29
2023-03-06T03:17:36.540Z,2.18
2023-03-06T03:22:37.287Z,2.14
2023-03-06T03:27:40.495Z,1.93
2023-03-06T03:32:41.505Z,1.88
2023-03-06T03:37:43.339Z,1.79
2023-03-06T03:42:45.517Z,1.79
2023-03-06T03:47:47.438Z,1.81
2023-03-06T03:52:48.467Z,1.76
2023-03-06T03:57:50.954Z,1.81
2023-03-06T04:02:52.506Z,1.59
2023-03-06T04:08:04.330Z,1.67
2023-03-06T04:13:09.959Z,1.56
2023-03-06T04:18:16.334Z,1.49
2023-03-06T04:23:18.383Z,1.57
2023-03-06T04:28:22.021Z,1.57
2023-03-06T04:33:23.205Z,1.68
2023-03-06T04:38:24.037Z,1.63
2023-03-06T04:43:26.414Z,1.46
2023-03-06T04:48:27.117Z,1.62
2023-03-06T04:53:27.901Z,1.67
2023-03-06T04:58:29.927Z,1.57
2023-03-06T05:03:30.615Z,1.67
2023-03-06T05:08:32.006Z,1.61
2023-03-06T05:13:34.203Z,1.52
2023-03-06T05:18:36.165Z,1.46
2023-03-06T05:23:38.625Z,1.44
2023-03-06T05:28:41.431Z,1.47
2023-03-06T05:33:42.238Z,1.36
2023-03-06T05:38:43.301Z,1.45
2023-03-06T05:43:45.321Z,1.48
2023-03-06T05:48:46.929Z,1.50
2023-03-06T05:53:47.929Z,1.34
2023-03-06T05:58:50.933Z,1.39
2023-03-06T06:03:51.855Z,1.42
2023-03-06T06:08:52.558Z,1.38
2023-03-06T06:13:56.720Z,1.53
2023-03-06T06:18:58.544Z,1.51
2023-03-06T06:23:59.268Z,1.53
2023-03-06T06:29:01.249Z,1.69
2023-03-06T06:34:02.097Z,1.74
2023-03-06T06:39:03.570Z,1.85
2023-03-06T06:44:08.892Z,1.80
2023-03-06T06:49:09.645Z,2.03
2023-03-06T06:54:11.953Z,2.06
2023-03-06T06:59:17.223Z,2.26
2023-03-06T07:04:19.148Z,2.37
2023-03-06T07:09:20.127Z,2.31
2023-03-06T07:14:22.149Z,2.21
2023-03-06T07:19:22.888Z,2.59
2023-03-06T07:24:23.606Z,2.41
2023-03-06T07:29:25.599Z,2.60
2023-03-06T07:34:26.284Z,2.65
2023-03-06T07:39:28.168Z,2.81
2023-03-06T07:44:30.303Z,2.83
2023-03-06T07:49:30.936Z,3.00
2023-03-06T07:54:32.712Z,3.09
2023-03-06T07:59:35.760Z,3.17
2023-03-06T08:04:36.434Z,3.19
2023-03-06T08:09:37.210Z,3.42
2023-03-06T08:14:39.198Z,3.35
2023-03-06T08:19:39.910Z,3.57
2023-03-06T08:24:40.668Z,4.02
2023-03-06T08:29:42.681Z,4.36
2023-03-06T08:34:45.550Z,4.25
2023-03-06T08:39:46.236Z,4.60
2023-03-06T08:44:48.286Z,4.34
2023-03-06T08:49:49.156Z,4.06
2023-03-06T08:54:49.818Z,3.93
2023-03-06T08:59:51.822Z,3.89
2023-03-06T09:04:52.508Z,3.97
2023-03-06T09:09:56.946Z,3.98
2023-03-06T09:14:58.986Z,4.02
2023-03-06T09:19:59.735Z,4.04
2023-03-06T09:25:00.813Z,4.08
2023-03-06T09:30:02.998Z,4.18
2023-03-06T09:35:03.695Z,4.28
2023-03-06T09:40:06.851Z,4.25
2023-03-06T09:45:13.089Z,4.55
2023-03-06T09:50:29.553Z,4.86
2023-03-06T09:55:33.432Z,4.97
2023-03-06T10:00:39.693Z,4.94
2023-03-06T10:05:42.922Z,5.26
2023-03-06T10:10:47.955Z,5.32
2023-03-06T10:15:51.042Z,5.13
2023-03-06T10:21:13.450Z,4.81
2023-03-06T10:26:23.453Z,4.83
2023-03-06T10:31:27.752Z,4.86
2023-03-06T10:36:30.125Z,4.58
2023-03-06T10:41:32.964Z,4.60
2023-03-06T10:46:37.396Z,4.56
2023-03-06T10:51:38.244Z,4.61
2023-03-06T10:56:41.234Z,4.68
2023-03-06T11:01:45.335Z,4.67
2023-03-06T11:06:46.138Z,4.57
2023-03-06T11:11:46.885Z,4.54
2023-03-06T11:16:53.194Z,4.52
2023-03-06T11:22:02.321Z,4.39
2023-03-06T11:27:10.015Z,4.50
2023-03-06T11:32:17.532Z,4.40
2023-03-06T11:37:26.774Z,3.83
2023-03-06T11:42:30.506Z,3.51
2023-03-06T11:47:36.069Z,3.39
2023-03-06T11:52:47.781Z,3.38
2023-03-06T11:57:56.967Z,3.39
2023-03-06T12:03:25.142Z,3.49
2023-03-06T12:08:40.946Z,4.10
2023-03-06T12:13:58.311Z,4.73
2023-03-06T12:19:14.379Z,5.16
2023-03-06T12:24:30.400Z,5.04
2023-03-06T12:29:47.308Z,5.37
2023-03-06T12:35:06.081Z,5.35
2023-03-06T12:40:43.013Z,5.04
2023-03-06T12:45:45.381Z,4.32
2023-03-06T12:50:48.513Z,4.42
2023-03-06T12:55:50.757Z,4.54
2023-03-06T13:01:06.039Z,4.68
2023-03-06T13:06:26.465Z,4.73
2023-03-06T13:11:43.494Z,4.69
2023-03-06T13:16:44.274Z,3.49
2023-03-06T13:22:04.373Z,3.05
2023-03-06T13:27:10.459Z,2.77
2023-03-06T13:32:18.880Z,2.79
2023-03-06T13:37:51.881Z,2.84
2023-03-06T13:43:23.603Z,3.03
2023-03-06T13:48:43.684Z,3.10
2023-03-06T13:54:30.671Z,3.30
2023-03-06T14:00:13.651Z,3.34
2023-03-06T14:05:16.263Z,3.72
2023-03-06T14:10:23.847Z,3.88
2023-03-06T14:15:28.200Z,3.87
2023-03-06T14:20:36.423Z,4.07
2023-03-06T14:25:38.674Z,4.22
2023-03-06T14:30:50.429Z,4.16
2023-03-06T14:35:55.002Z,4.33
2023-03-06T14:40:58.403Z,4.15
2023-03-06T14:46:00.842Z,4.29
2023-03-06T14:51:02.820Z,4.20
2023-03-06T14:56:06.848Z,4.27
2023-03-06T15:01:10.461Z,4.34
2023-03-06T15:06:16.567Z,4.43
2023-03-06T15:11:18.662Z,4.50
2023-03-06T15:16:30.163Z,4.51
2023-03-06T15:21:36.193Z,4.37
2023-03-06T15:26:40.814Z,4.49
2023-03-06T15:31:43.367Z,4.43
2023-03-06T15:36:47.387Z,4.26
2023-03-06T15:41:49.494Z,4.14
2023-03-06T15:46:53.870Z,4.13
2023-03-06T15:51:59.862Z,4.00
2023-03-06T15:57:03.456Z,4.11
2023-03-06T16:02:14.417Z,4.11
2023-03-06T16:07:16.128Z,3.60
2023-03-06T16:12:20.036Z,2.72
2023-03-06T16:17:20.709Z,1.89
2023-03-06T16:22:21.379Z,1.59
2023-03-06T16:27:25.679Z,1.36
2023-03-06T16:32:28.696Z,1.34
2023-03-06T16:37:29.502Z,1.38
2023-03-06T16:42:32.022Z,1.46
2023-03-06T16:47:32.706Z,1.55
2023-03-06T16:52:33.504Z,1.58
2023-03-06T16:57:35.798Z,1.64
2023-03-06T17:02:36.659Z,1.61
2023-03-06T17:07:38.741Z,1.61
2023-03-06T17:12:40.809Z,1.77
2023-03-06T17:17:41.534Z,1.83
2023-03-06T17:22:45.406Z,1.79
2023-03-06T17:27:47.378Z,1.90
2023-03-06T17:32:48.071Z,1.85
2023-03-06T17:37:48.754Z,1.87
2023-03-06T17:42:50.872Z,2.07
2023-03-06T17:47:54.752Z,2.03
2023-03-06T17:52:55.424Z,2.09
2023-03-06T17:57:57.667Z,2.06
2023-03-06T18:02:58.341Z,2.24
2023-03-06T18:07:59.009Z,2.19
2023-03-06T18:13:00.966Z,2.16
2023-03-06T18:18:01.811Z,2.12
2023-03-06T18:23:03.775Z,2.15
2023-03-06T18:28:06.045Z,2.11
2023-03-06T18:33:06.813Z,2.05
2023-03-06T18:38:07.450Z,2.07
2023-03-06T18:43:09.419Z,2.06
2023-03-06T18:48:10.631Z,2.16
2023-03-06T18:53:11.340Z,2.15
2023-03-06T18:58:13.400Z,2.25
2023-03-06T19:03:14.496Z,2.18
2023-03-06T19:08:16.567Z,2.23
2023-03-06T19:13:18.684Z,2.04
2023-03-06T19:18:19.462Z,2.09
2023-03-06T19:23:21.195Z,2.14
2023-03-06T19:28:23.296Z,2.09
2023-03-06T19:33:23.969Z,2.16
2023-03-06T19:38:24.662Z,2.18
2023-03-06T19:43:26.776Z,2.23
2023-03-06T19:48:27.485Z,2.21
2023-03-06T19:53:28.320Z,2.23
2023-03-06T19:58:30.350Z,2.12
2023-03-06T20:03:31.158Z,2.08
2023-03-06T20:08:32.072Z,2.08
2023-03-06T20:13:34.204Z,2.09
2023-03-06T20:18:34.990Z,2.02
2023-03-06T20:23:36.073Z,2.01
2023-03-06T20:28:39.313Z,1.99
2023-03-06T20:33:40.474Z,1.96
2023-03-06T20:39:05.047Z,1.87
2023-03-06T20:44:08.989Z,1.69
2023-03-06T20:49:10.091Z,1.73
2023-03-06T20:54:13.847Z,1.63
2023-03-06T20:59:16.108Z,1.82
2023-03-06T21:04:17.357Z,1.85
2023-03-06T21:09:18.465Z,1.94
2023-03-06T21:14:20.585Z,1.96
2023-03-06T21:19:21.265Z,2.04
2023-03-06T21:24:22.406Z,2.14
2023-03-06T21:29:24.747Z,2.18
2023-03-06T21:34:25.473Z,2.15
2023-03-06T21:39:26.448Z,2.17
2023-03-06T21:44:28.607Z,2.18
2023-03-06T21:49:29.504Z,2.14
2023-03-06T21:54:30.201Z,2.10
2023-03-06T21:59:32.271Z,2.01
2023-03-06T22:04:33.058Z,1.82
2023-03-06T22:09:35.755Z,1.70
2023-03-06T22:14:37.862Z,1.58
2023-03-06T22:19:38.532Z,1.47
2023-03-06T22:24:39.380Z,1.27
2023-03-06T22:29:41.483Z,1.23
2023-03-06T22:34:42.264Z,1.23
2023-03-06T22:39:42.942Z,1.19
2023-03-06T22:44:45.183Z,1.11
2023-03-06T22:49:45.894Z,1.20
2023-03-06T22:54:46.649Z,1.08
2023-03-06T22:59:48.666Z,0.92
2023-03-06T23:04:52.232Z,0.85
2023-03-06T23:09:53.047Z,0.94
2023-03-06T23:15:13.932Z,0.86
2023-03-06T23:20:34.393Z,1.04
2023-03-06T23:25:53.920Z,1.13
2023-03-06T23:30:56.047Z,1.35
2023-03-06T23:35:56.758Z,1.37
2023-03-06T23:40:57.442Z,1.38
2023-03-06T23:46:00.198Z,1.49
2023-03-06T23:51:01.249Z,1.49
2023-03-06T23:56:02.280Z,1.50
